createdAt,value
2023-02-15T00:01:42.235Z,-0.40
2023-02-15T00:04:10.560Z,-0.31
2023-02-15T00:06:37.581Z,-0.35
2023-02-15T00:09:04.952Z,-0.37
2023-02-15T00:11:41.129Z,-0.53
2023-02-15T00:14:17.232Z,-0.29
2023-02-15T00:16:45.317Z,-0.29
2023-02-15T00:19:14.202Z,-0.36
2023-02-15T00:21:41.965Z,-0.41
2023-02-15T00:24:11.628Z,-0.46
2023-02-15T00:26:43.344Z,-0.48
2023-02-15T00:29:11.966Z,-0.82
2023-02-15T00:31:39.193Z,-0.37
2023-02-15T00:34:19.191Z,-0.40
2023-02-15T00:36:46.442Z,-0.51
2023-02-15T00:39:16.571Z,-0.39
2023-02-15T00:41:45.107Z,-0.33
2023-02-15T00:44:12.893Z,-0.42
2023-02-15T00:46:40.225Z,-0.37
2023-02-15T00:49:10.222Z,-0.40
2023-02-15T00:51:39.348Z,-0.42
2023-02-15T00:54:07.041Z,-0.51
2023-02-15T00:56:34.453Z,-0.35
2023-02-15T00:59:01.514Z,-0.34
2023-02-15T01:01:28.633Z,-0.43
2023-02-15T01:03:55.832Z,-0.33
2023-02-15T01:06:22.869Z,-0.34
2023-02-15T01:08:50.013Z,-0.46
2023-02-15T01:11:23.467Z,-0.36
2023-02-15T01:13:56.898Z,-0.46
2023-02-15T01:16:26.345Z,-0.38
2023-02-15T01:18:56.550Z,-0.48
2023-02-15T01:21:26.474Z,-0.49
2023-02-15T01:23:53.860Z,-0.49
2023-02-15T01:26:20.992Z,-0.93
2023-02-15T01:28:48.403Z,-0.67
2023-02-15T01:31:19.441Z,-0.54
2023-02-15T01:33:48.295Z,-0.71
2023-02-15T01:36:16.159Z,-0.57
2023-02-15T01:38:43.149Z,-0.61
2023-02-15T01:41:27.340Z,-0.75
2023-02-15T01:43:57.917Z,-0.54
2023-02-15T01:46:49.372Z,-0.74
2023-02-15T01:49:20.737Z,-0.60
2023-02-15T01:51:50.023Z,-0.59
2023-02-15T01:54:27.444Z,-0.60
2023-02-15T01:56:59.490Z,-0.63
2023-02-15T01:59:27.186Z,-0.58
2023-02-15T02:01:59.811Z,-0.66
2023-02-15T02:04:41.021Z,-0.56
2023-02-15T02:07:09.744Z,-0.69
2023-02-15T02:09:38.876Z,-0.56
2023-02-15T02:12:06.408Z,-0.53
2023-02-15T02:14:33.787Z,-0.68
2023-02-15T02:17:30.572Z,-0.80
2023-02-15T02:20:34.016Z,-0.43
2023-02-15T02:23:19.182Z,-0.44
2023-02-15T02:26:12.488Z,-0.41
2023-02-15T02:28:51.317Z,-0.41
2023-02-15T02:31:27.388Z,-0.43
2023-02-15T02:34:25.355Z,-0.36
2023-02-15T02:37:11.326Z,-0.34
2023-02-15T02:39:59.865Z,-0.40
2023-02-15T02:42:51.336Z,-0.39
2023-02-15T02:45:46.885Z,-0.51
2023-02-15T02:48:19.470Z,-0.38
2023-02-15T02:50:50.050Z,-0.57
2023-02-15T02:53:17.818Z,-0.43
2023-02-15T02:56:00.751Z,-0.41
2023-02-15T02:58:27.864Z,-0.43
2023-02-15T03:00:58.760Z,-0.45
2023-02-15T03:03:34.235Z,-0.47
2023-02-15T03:06:07.555Z,-0.48
2023-02-15T03:08:39.471Z,-0.45
2023-02-15T03:11:06.927Z,-0.47
2023-02-15T03:13:35.190Z,-0.57
2023-02-15T03:16:24.791Z,-0.50
2023-02-15T03:19:14.251Z,-0.80
2023-02-15T03:22:04.674Z,-0.67
2023-02-15T03:24:39.660Z,-0.72
2023-02-15T03:27:18.718Z,-0.66
2023-02-15T03:29:50.103Z,-0.71
2023-02-15T03:32:18.351Z,-0.84
2023-02-15T03:34:46.013Z,-0.73
2023-02-15T03:37:31.809Z,-0.75
2023-02-15T03:40:26.592Z,-0.72
2023-02-15T03:43:13.053Z,-0.78
2023-02-15T03:45:55.827Z,-0.85
2023-02-15T03:48:27.727Z,-0.84
2023-02-15T03:51:20.481Z,-0.90
2023-02-15T03:53:49.962Z,-0.93
2023-02-15T03:56:16.991Z,-0.87
2023-02-15T03:59:02.623Z,-0.86
2023-02-15T04:02:04.473Z,-0.90
2023-02-15T04:04:42.181Z,-0.88
2023-02-15T04:07:10.155Z,-0.98
2023-02-15T04:09:56.131Z,-0.94
2023-02-15T04:12:23.588Z,-1.29
2023-02-15T04:15:09.452Z,-0.89
2023-02-15T04:17:38.758Z,-0.94
2023-02-15T04:20:24.906Z,-1.03
2023-02-15T04:23:10.669Z,-0.88
2023-02-15T04:25:37.777Z,-0.92
2023-02-15T04:28:04.894Z,-0.91
2023-02-15T04:30:31.993Z,-0.95
2023-02-15T04:32:58.989Z,-0.96
2023-02-15T04:35:26.842Z,-0.99
2023-02-15T04:37:53.934Z,-0.98
2023-02-15T04:40:21.126Z,-1.00
2023-02-15T04:42:51.017Z,-1.00
2023-02-15T04:45:18.689Z,-1.05
2023-02-15T04:47:46.176Z,-1.08
2023-02-15T04:50:13.259Z,-1.12
2023-02-15T04:52:40.402Z,-1.16
2023-02-15T04:55:08.022Z,-1.13
2023-02-15T04:57:35.062Z,-1.17
2023-02-15T05:00:02.340Z,-1.13
2023-02-15T05:02:32.025Z,-1.13
2023-02-15T05:04:59.091Z,-1.14
2023-02-15T05:07:26.121Z,-1.18
2023-02-15T05:09:53.132Z,-1.21
2023-02-15T05:12:20.130Z,-1.18
2023-02-15T05:14:47.164Z,-1.18
2023-02-15T05:17:14.166Z,-1.34
2023-02-15T05:19:41.146Z,-1.62
2023-02-15T05:22:08.203Z,-1.15
2023-02-15T05:24:53.797Z,-1.20
2023-02-15T05:27:39.521Z,-1.23
2023-02-15T05:30:12.707Z,-1.38
2023-02-15T05:32:40.621Z,-1.17
2023-02-15T05:35:08.822Z,-1.68
2023-02-15T05:37:35.873Z,-1.23
2023-02-15T05:40:02.922Z,-1.22
2023-02-15T05:42:31.192Z,-1.33
2023-02-15T05:44:58.223Z,-1.23
2023-02-15T05:47:25.282Z,-1.22
2023-02-15T05:49:52.361Z,-1.28
2023-02-15T05:52:19.537Z,-1.45
2023-02-15T05:54:46.525Z,-1.20
2023-02-15T05:57:13.567Z,-1.27
2023-02-15T05:59:40.594Z,-1.21
2023-02-15T06:02:07.840Z,-1.13
2023-02-15T06:04:34.941Z,-1.09
2023-02-15T06:07:01.961Z,-1.12
2023-02-15T06:09:28.981Z,-1.10
2023-02-15T06:11:58.342Z,-1.12
2023-02-15T06:14:25.347Z,-1.09
2023-02-15T06:16:52.503Z,-1.21
2023-02-15T06:19:20.131Z,-1.09
2023-02-15T06:21:47.170Z,-1.07
2023-02-15T06:24:14.307Z,-1.07
2023-02-15T06:26:41.332Z,-1.00
2023-02-15T06:29:08.503Z,-1.09
2023-02-15T06:31:35.618Z,-1.06
2023-02-15T06:34:02.726Z,-1.06
2023-02-15T06:36:30.989Z,-1.20
2023-02-15T06:38:58.322Z,-1.14
2023-02-15T06:41:25.527Z,-1.15
2023-02-15T06:43:52.515Z,-1.27
2023-02-15T06:46:19.681Z,-1.43
2023-02-15T06:48:46.792Z,-1.18
2023-02-15T06:51:13.956Z,-1.12
2023-02-15T06:53:43.886Z,-1.03
2023-02-15T06:56:12.348Z,-1.19
2023-02-15T06:58:40.844Z,-1.08
2023-02-15T07:01:09.390Z,-1.02
2023-02-15T07:03:36.946Z,-0.99
2023-02-15T07:06:07.281Z,-1.01
2023-02-15T07:08:34.412Z,-0.88
2023-02-15T07:11:20.939Z,-0.90
2023-02-15T07:13:48.552Z,-1.16
2023-02-15T07:16:15.832Z,-0.96
2023-02-15T07:18:42.904Z,-0.81
2023-02-15T07:21:10.041Z,-0.71
2023-02-15T07:23:38.571Z,-0.68
2023-02-15T07:26:07.020Z,-0.83
2023-02-15T07:28:35.192Z,-0.60
2023-02-15T07:31:04.201Z,-0.68
2023-02-15T07:33:32.420Z,-0.45
2023-02-15T07:36:03.324Z,-0.37
2023-02-15T07:38:36.081Z,-0.39
2023-02-15T07:41:06.236Z,-0.34
2023-02-15T07:43:35.844Z,-0.46
2023-02-15T07:46:11.054Z,-0.41
2023-02-15T07:48:39.506Z,-0.34
2023-02-15T07:51:09.890Z,-0.48
2023-02-15T07:53:37.892Z,-0.25
2023-02-15T07:56:13.917Z,-0.29
2023-02-15T07:58:53.659Z,-0.20
2023-02-15T08:01:23.772Z,-0.20
2023-02-15T08:03:51.173Z,-0.15
2023-02-15T08:06:18.277Z,-0.13
2023-02-15T08:08:45.503Z,-0.10
2023-02-15T08:11:37.614Z,-0.03
2023-02-15T08:14:10.738Z,-0.04
2023-02-15T08:16:43.596Z,-0.17
2023-02-15T08:19:15.101Z,-0.12
2023-02-15T08:21:44.572Z,-0.14
2023-02-15T08:24:13.469Z,-0.20
2023-02-15T08:26:42.310Z,-0.38
2023-02-15T08:29:10.760Z,-0.23
2023-02-15T08:31:38.780Z,-0.25
2023-02-15T08:34:06.291Z,-0.29
2023-02-15T08:36:33.691Z,-0.52
2023-02-15T08:39:02.515Z,-0.38
2023-02-15T08:41:31.896Z,-0.41
2023-02-15T08:44:01.631Z,-0.40
2023-02-15T08:46:31.091Z,-0.34
2023-02-15T08:48:58.687Z,-0.32
2023-02-15T08:51:34.478Z,-0.21
2023-02-15T08:54:06.926Z,-0.22
2023-02-15T08:56:40.180Z,-0.63
2023-02-15T08:59:08.838Z,-0.34
2023-02-15T09:01:36.237Z,-0.27
2023-02-15T09:04:06.533Z,-0.23
2023-02-15T09:06:33.743Z,-0.21
2023-02-15T09:09:00.827Z,-0.23
2023-02-15T09:11:30.747Z,-0.11
2023-02-15T09:14:03.659Z,-0.01
2023-02-15T09:16:33.510Z,0.07
2023-02-15T09:19:05.802Z,0.08
2023-02-15T09:21:37.694Z,0.14
2023-02-15T09:24:08.438Z,0.23
2023-02-15T09:26:38.575Z,0.20
2023-02-15T09:29:05.629Z,0.16
2023-02-15T09:31:38.444Z,0.24
2023-02-15T09:34:05.548Z,0.19
2023-02-15T09:36:38.282Z,0.12
2023-02-15T09:39:10.785Z,0.11
2023-02-15T09:41:46.336Z,0.18
2023-02-15T09:44:13.386Z,0.15
2023-02-15T09:47:02.039Z,0.15
2023-02-15T09:49:55.711Z,0.05
2023-02-15T09:52:37.927Z,0.13
2023-02-15T09:55:26.444Z,0.10
2023-02-15T09:58:06.463Z,0.12
2023-02-15T10:01:01.811Z,0.12
2023-02-15T10:03:53.716Z,0.12
2023-02-15T10:06:25.332Z,0.11
2023-02-15T10:09:12.178Z,0.17
2023-02-15T10:11:44.789Z,0.19
2023-02-15T10:14:20.555Z,0.24
2023-02-15T10:16:57.278Z,0.34
2023-02-15T10:20:06.684Z,0.43
2023-02-15T10:22:51.575Z,0.44
2023-02-15T10:25:27.883Z,0.47
2023-02-15T10:27:54.869Z,0.43
2023-02-15T10:30:43.215Z,0.54
2023-02-15T10:33:39.240Z,0.54
2023-02-15T10:36:22.685Z,0.40
2023-02-15T10:39:19.844Z,0.56
2023-02-15T10:42:28.264Z,0.44
2023-02-15T10:45:13.681Z,0.43
2023-02-15T10:47:55.865Z,0.23
2023-02-15T10:50:34.832Z,0.17
2023-02-15T10:53:07.689Z,0.10
2023-02-15T10:55:52.832Z,-0.02
2023-02-15T10:58:48.779Z,0.03
2023-02-15T11:01:25.207Z,-0.11
2023-02-15T11:04:40.761Z,-0.11
2023-02-15T11:07:30.413Z,-0.12
2023-02-15T11:10:34.181Z,-0.16
2023-02-15T11:13:10.267Z,-0.22
2023-02-15T11:15:56.415Z,-0.13
2023-02-15T11:18:37.150Z,-0.17
2023-02-15T11:21:12.880Z,-0.35
2023-02-15T11:23:48.571Z,-0.29
2023-02-15T11:26:47.945Z,-0.30
2023-02-15T11:29:26.676Z,-0.28
2023-02-15T11:31:57.962Z,-0.38
2023-02-15T11:34:37.703Z,-0.38
2023-02-15T11:37:14.224Z,-0.32
2023-02-15T11:39:41.457Z,-0.33
2023-02-15T11:42:15.529Z,-0.44
2023-02-15T11:45:05.592Z,-0.48
2023-02-15T11:47:32.552Z,-0.43
2023-02-15T11:50:01.568Z,-0.58
2023-02-15T11:52:30.164Z,-0.43
2023-02-15T11:54:57.260Z,-0.60
2023-02-15T11:57:41.567Z,-0.58
2023-02-15T12:00:15.687Z,-0.40
2023-02-15T12:02:50.316Z,-0.34
2023-02-15T12:05:23.409Z,-0.49
2023-02-15T12:08:05.106Z,-0.39
2023-02-15T12:10:50.196Z,-0.42
2023-02-15T12:13:20.421Z,-0.58
2023-02-15T12:15:51.149Z,-0.47
2023-02-15T12:18:40.643Z,-0.47
2023-02-15T12:21:14.636Z,-0.61
2023-02-15T12:23:49.850Z,-0.63
2023-02-15T12:26:35.380Z,-0.74
2023-02-15T12:29:13.982Z,-0.77
2023-02-15T12:31:44.923Z,-0.68
2023-02-15T12:34:27.740Z,-0.60
2023-02-15T12:37:01.416Z,-0.65
2023-02-15T12:39:33.402Z,-0.67
2023-02-15T12:42:04.668Z,-0.67
2023-02-15T12:44:35.673Z,-0.78
2023-02-15T12:47:02.800Z,-1.07
2023-02-15T12:49:35.070Z,-0.83
2023-02-15T12:52:07.885Z,-0.71
2023-02-15T12:54:42.018Z,-0.80
2023-02-15T12:57:16.701Z,-0.85
2023-02-15T13:00:00.516Z,-0.71
2023-02-15T13:02:44.564Z,-0.71
2023-02-15T13:05:30.241Z,-0.69
2023-02-15T13:08:05.058Z,-0.76
2023-02-15T13:10:40.775Z,-0.79
2023-02-15T13:13:13.138Z,-0.73
2023-02-15T13:15:42.192Z,-0.81
2023-02-15T13:18:18.206Z,-0.74
2023-02-15T13:20:46.353Z,-0.85
2023-02-15T13:23:30.118Z,-0.69
2023-02-15T13:26:00.722Z,-0.74
2023-02-15T13:28:49.736Z,-0.76
2023-02-15T13:31:20.599Z,-0.84
2023-02-15T13:34:11.185Z,-0.71
2023-02-15T13:36:59.017Z,-0.79
2023-02-15T13:39:41.949Z,-0.78
2023-02-15T13:42:31.869Z,-0.85
2023-02-15T13:45:23.409Z,-0.81
2023-02-15T13:48:11.647Z,-0.84
2023-02-15T13:51:13.946Z,-0.81
2023-02-15T13:53:43.838Z,-0.79
2023-02-15T13:56:20.882Z,-0.93
2023-02-15T13:58:53.732Z,-0.72
2023-02-15T14:01:24.507Z,-0.72
2023-02-15T14:04:10.265Z,-0.67
2023-02-15T14:06:56.689Z,-0.77
2023-02-15T14:09:42.268Z,-0.71
2023-02-15T14:12:27.705Z,-0.69
2023-02-15T14:15:07.851Z,-0.62
2023-02-15T14:17:53.114Z,-0.61
2023-02-15T14:20:27.098Z,-0.58
2023-02-15T14:22:56.956Z,-0.66
2023-02-15T14:25:30.130Z,-0.78
2023-02-15T14:28:09.335Z,-0.70
2023-02-15T14:30:39.259Z,-0.68
2023-02-15T14:33:26.244Z,-0.80
2023-02-15T14:35:53.327Z,-0.87
2023-02-15T14:38:20.162Z,-0.85
2023-02-15T14:41:02.504Z,-0.90
2023-02-15T14:43:33.388Z,-0.99
2023-02-15T14:46:05.048Z,-0.99
2023-02-15T14:48:40.383Z,-0.95
2023-02-15T14:51:07.172Z,-0.97
2023-02-15T14:53:39.442Z,-0.95
2023-02-15T14:56:14.769Z,-1.02
2023-02-15T14:58:50.492Z,-0.92
2023-02-15T15:01:17.496Z,-0.87
2023-02-15T15:03:49.953Z,-0.91
2023-02-15T15:06:28.028Z,-1.00
2023-02-15T15:09:00.869Z,-0.97
2023-02-15T15:11:43.156Z,-0.94
2023-02-15T15:14:11.788Z,-0.88
2023-02-15T15:16:38.653Z,-0.84
2023-02-15T15:19:10.302Z,-0.83
2023-02-15T15:21:49.563Z,-0.83
2023-02-15T15:24:35.278Z,-0.89
2023-02-15T15:27:20.503Z,-0.85
2023-02-15T15:29:47.338Z,-0.93
2023-02-15T15:32:18.030Z,-0.95
2023-02-15T15:35:03.463Z,-0.98
2023-02-15T15:37:48.989Z,-0.99
2023-02-15T15:40:38.801Z,-0.99
2023-02-15T15:43:05.647Z,-0.95
2023-02-15T15:45:47.173Z,-1.02
2023-02-15T15:48:23.163Z,-1.08
2023-02-15T15:50:55.070Z,-1.06
2023-02-15T15:53:23.556Z,-1.04
2023-02-15T15:55:51.752Z,-1.10
2023-02-15T15:58:20.239Z,-1.03
2023-02-15T16:00:53.168Z,-1.02
2023-02-15T16:03:25.532Z,-1.05
2023-02-15T16:05:56.333Z,-1.06
2023-02-15T16:08:41.168Z,-1.08
2023-02-15T16:11:34.423Z,-1.11
2023-02-15T16:14:01.282Z,-1.12
2023-02-15T16:16:29.829Z,-1.07
2023-02-15T16:19:00.803Z,-1.04
2023-02-15T16:21:29.838Z,-1.08
2023-02-15T16:24:08.142Z,-1.18
2023-02-15T16:26:34.956Z,-1.24
2023-02-15T16:29:02.633Z,-1.19
2023-02-15T16:31:29.550Z,-1.15
2023-02-15T16:33:56.627Z,-1.10
2023-02-15T16:36:24.891Z,-1.09
2023-02-15T16:38:51.693Z,-1.12
2023-02-15T16:41:22.102Z,-1.05
2023-02-15T16:43:50.048Z,-1.04
2023-02-15T16:46:21.982Z,-1.08
2023-02-15T16:48:52.935Z,-1.08
2023-02-15T16:51:23.681Z,-1.06
2023-02-15T16:53:50.929Z,-1.07
2023-02-15T16:56:23.640Z,-1.08
2023-02-15T16:58:51.695Z,-1.07
2023-02-15T17:01:21.427Z,-1.11
2023-02-15T17:03:49.881Z,-1.05
2023-02-15T17:06:26.818Z,-1.06
2023-02-15T17:08:54.262Z,-1.05
2023-02-15T17:11:22.200Z,-0.99
2023-02-15T17:14:07.798Z,-0.93
2023-02-15T17:16:36.200Z,-0.96
2023-02-15T17:19:03.663Z,-0.95
2023-02-15T17:21:34.832Z,-0.93
2023-02-15T17:24:05.204Z,-0.98
2023-02-15T17:26:33.834Z,-0.97
2023-02-15T17:29:23.501Z,-1.04
2023-02-15T17:31:52.360Z,-1.08
2023-02-15T17:34:38.100Z,-1.16
2023-02-15T17:37:04.901Z,-1.18
2023-02-15T17:39:33.479Z,-1.17
2023-02-15T17:42:00.481Z,-1.21
2023-02-15T17:44:27.375Z,-1.23
2023-02-15T17:46:54.189Z,-1.14
2023-02-15T17:49:25.577Z,-1.08
2023-02-15T17:51:52.419Z,-1.09
2023-02-15T17:54:37.758Z,-1.14
2023-02-15T17:57:06.987Z,-1.17
2023-02-15T17:59:33.781Z,-1.14
2023-02-15T18:02:19.224Z,-1.12
2023-02-15T18:05:04.913Z,-1.13
2023-02-15T18:07:50.127Z,-1.24
2023-02-15T18:10:36.785Z,-1.37
2023-02-15T18:13:03.947Z,-1.29
2023-02-15T18:15:31.032Z,-1.24
2023-02-15T18:17:58.057Z,-1.25
2023-02-15T18:20:28.359Z,-1.29
2023-02-15T18:22:55.219Z,-1.32
2023-02-15T18:25:24.392Z,-1.31
2023-02-15T18:27:53.343Z,-1.27
2023-02-15T18:30:23.493Z,-1.21
2023-02-15T18:32:52.093Z,-1.19
2023-02-15T18:35:20.785Z,-1.23
2023-02-15T18:37:47.790Z,-1.21
2023-02-15T18:40:15.700Z,-1.22
2023-02-15T18:42:47.184Z,-1.23
2023-02-15T18:45:19.105Z,-1.23
2023-02-15T18:47:46.296Z,-1.25
2023-02-15T18:50:13.744Z,-1.27
2023-02-15T18:52:41.096Z,-1.27
2023-02-15T18:55:35.560Z,-1.29
2023-02-15T18:58:02.676Z,-1.23
2023-02-15T19:00:32.541Z,-1.26
2023-02-15T19:03:00.153Z,-1.27
2023-02-15T19:05:30.318Z,-1.38
2023-02-15T19:07:58.718Z,-1.44
2023-02-15T19:10:26.859Z,-1.43
2023-02-15T19:12:54.431Z,-1.43
2023-02-15T19:15:30.863Z,-1.40
2023-02-15T19:17:57.746Z,-1.34
2023-02-15T19:20:26.582Z,-1.29
2023-02-15T19:22:55.535Z,-1.27
2023-02-15T19:25:24.038Z,-1.25
2023-02-15T19:27:51.831Z,-1.22
2023-02-15T19:30:29.961Z,-1.24
2023-02-15T19:33:00.496Z,-1.26
2023-02-15T19:35:29.716Z,-1.30
2023-02-15T19:38:00.844Z,-1.33
2023-02-15T19:40:31.816Z,-1.32
2023-02-15T19:42:58.694Z,-1.30
2023-02-15T19:45:29.846Z,-1.30
2023-02-15T19:47:56.953Z,-1.36
2023-02-15T19:50:28.372Z,-1.39
2023-02-15T19:52:55.199Z,-1.41
2023-02-15T19:55:24.542Z,-1.44
2023-02-15T19:57:52.376Z,-1.43
2023-02-15T20:00:22.604Z,-1.49
2023-02-15T20:02:49.810Z,-1.48
2023-02-15T20:05:16.714Z,-1.44
2023-02-15T20:07:45.419Z,-1.42
2023-02-15T20:10:19.693Z,-1.41
2023-02-15T20:12:47.617Z,-1.48
2023-02-15T20:15:20.404Z,-1.47
2023-02-15T20:17:47.315Z,-1.47
2023-02-15T20:20:14.674Z,-1.51
2023-02-15T20:22:42.573Z,-1.53
2023-02-15T20:25:11.232Z,-1.51
2023-02-15T20:27:38.114Z,-1.47
2023-02-15T20:30:07.367Z,-1.50
2023-02-15T20:32:34.347Z,-1.53
2023-02-15T20:35:01.406Z,-1.54
2023-02-15T20:37:29.653Z,-1.59
2023-02-15T20:39:56.484Z,-1.59
2023-02-15T20:42:23.317Z,-1.57
2023-02-15T20:44:50.098Z,-1.54
2023-02-15T20:47:16.868Z,-1.51
2023-02-15T20:49:43.718Z,-1.54
2023-02-15T20:52:17.475Z,-1.57
2023-02-15T20:54:44.339Z,-1.55
2023-02-15T20:57:14.524Z,-1.54
2023-02-15T20:59:41.832Z,-1.55
2023-02-15T21:02:19.404Z,-1.54
2023-02-15T21:04:46.685Z,-1.57
2023-02-15T21:07:17.312Z,-1.59
2023-02-15T21:09:44.592Z,-1.68
2023-02-15T21:12:16.020Z,-1.71
2023-02-15T21:14:43.361Z,-1.73
2023-02-15T21:17:14.087Z,-1.73
2023-02-15T21:19:41.580Z,-1.73
2023-02-15T21:22:15.778Z,-1.69
2023-02-15T21:24:46.303Z,-1.74
2023-02-15T21:27:14.346Z,-1.71
2023-02-15T21:29:41.147Z,-1.67
2023-02-15T21:32:08.656Z,-1.69
2023-02-15T21:34:35.640Z,-1.70
2023-02-15T21:37:02.512Z,-1.72
2023-02-15T21:39:31.068Z,-1.79
2023-02-15T21:42:16.522Z,-1.84
2023-02-15T21:45:01.908Z,-1.95
2023-02-15T21:47:48.934Z,-1.93
2023-02-15T21:50:36.040Z,-1.93
2023-02-15T21:53:03.685Z,-1.91
2023-02-15T21:55:31.487Z,-2.00
2023-02-15T21:57:58.397Z,-2.09
2023-02-15T22:00:25.881Z,-2.08
2023-02-15T22:02:58.243Z,-2.12
2023-02-15T22:05:29.792Z,-2.04
2023-02-15T22:07:57.458Z,-2.02
2023-02-15T22:10:29.015Z,-2.13
2023-02-15T22:12:55.981Z,-2.07
2023-02-15T22:15:24.471Z,-2.05
2023-02-15T22:17:53.005Z,-2.03
2023-02-15T22:20:21.729Z,-2.02
2023-02-15T22:22:49.251Z,-2.04
2023-02-15T22:25:17.182Z,-2.01
2023-02-15T22:27:45.124Z,-1.97
2023-02-15T22:30:32.389Z,-1.91
2023-02-15T22:33:00.301Z,-1.93
2023-02-15T22:35:36.960Z,-1.90
2023-02-15T22:38:03.966Z,-1.94
2023-02-15T22:40:32.890Z,-1.94
2023-02-15T22:43:00.950Z,-1.97
2023-02-15T22:45:30.828Z,-1.90
2023-02-15T22:47:58.819Z,-1.89
2023-02-15T22:50:30.041Z,-1.88
2023-02-15T22:52:57.294Z,-1.86
2023-02-15T22:55:25.321Z,-1.87
2023-02-15T22:57:54.784Z,-1.94
2023-02-15T23:00:26.657Z,-2.06
2023-02-15T23:02:54.005Z,-2.02
2023-02-15T23:05:26.226Z,-2.05
2023-02-15T23:07:53.206Z,-2.10
2023-02-15T23:10:24.071Z,-2.05
2023-02-15T23:13:13.782Z,-2.01
2023-02-15T23:15:41.099Z,-1.97
2023-02-15T23:18:19.212Z,-1.99
2023-02-15T23:20:47.104Z,-2.01
2023-02-15T23:23:15.039Z,-2.01
2023-02-15T23:25:42.411Z,-2.00
2023-02-15T23:28:29.103Z,-1.98
2023-02-15T23:30:56.763Z,-2.02
2023-02-15T23:33:25.476Z,-2.15
2023-02-15T23:35:52.300Z,-2.06
2023-02-15T23:38:20.289Z,-2.04
2023-02-15T23:41:13.470Z,-2.09
2023-02-15T23:43:42.051Z,-2.08
2023-02-15T23:46:09.336Z,-2.05
2023-02-15T23:48:37.853Z,-2.15
2023-02-15T23:51:05.973Z,-2.12
2023-02-15T23:53:33.386Z,-2.14
2023-02-15T23:56:00.313Z,-2.06
2023-02-15T23:58:33.734Z,-2.03
